Time;durP1;ratioP1;P1;durP2;ratioP2;P2;SDS_P1;SDS_P2;PMS_P1;PMS_P2;Temp;Humidity;BMP_temperature;BMP_pressure;BME280_temperature;BME280_humidity;BME280_pressure;Samples;Min_cycle;Max_cycle;Signal;HPM_P1;HPM_P2
2022/09/20 00:01:27;;;;;;;;;4.00;4.00;;;;;14.76;48.74;102050.13;4976037;28;46347;-48
2022/09/20 00:03:55;;;;;;;;;4.33;2.33;;;;;14.82;48.92;102065.59;4975925;28;45319;-48
2022/09/20 00:06:24;;;;;;;;;4.00;1.00;;;;;14.84;48.80;102065.47;4976183;28;45848;-50
2022/09/20 00:08:50;;;;;;;;;2.00;2.00;;;;;14.82;49.23;102062.09;4976335;28;45231;-49
2022/09/20 00:11:22;;;;;;;;;4.33;1.67;;;;;14.79;48.83;102062.34;4975919;28;46135;-50
2022/09/20 00:13:49;;;;;;;;;2.00;1.67;;;;;14.76;49.07;102054.63;4977986;28;45391;-57
2022/09/20 00:16:19;;;;;;;;;1.00;1.00;;;;;14.76;48.99;102065.34;4976196;28;45312;-49
2022/09/20 00:18:48;;;;;;;;;2.00;1.00;;;;;14.74;49.15;102062.78;4976263;28;45243;-49
2022/09/20 00:21:19;;;;;;;;;1.00;1.00;;;;;14.66;49.29;102055.47;4976956;28;45460;-48
2022/09/20 00:23:44;;;;;;;;;1.33;1.00;;;;;14.70;49.48;102064.91;4976273;28;45254;-47
2022/09/20 00:26:10;;;;;;;;;2.00;2.00;;;;;14.65;49.31;102053.78;4975995;28;45227;-47
2022/09/20 00:28:35;;;;;;;;;0.33;0.33;;;;;14.62;49.36;102053.19;4976273;28;45367;-48
2022/09/20 00:31:01;;;;;;;;;3.00;1.67;;;;;14.59;49.71;102051.66;4976040;28;46103;-48
2022/09/20 00:36:11;;;;;;;;;2.00;2.00;;;;;14.60;49.48;102058.72;4975743;28;45461;-49
2022/09/20 00:38:36;;;;;;;;;2.67;2.00;;;;;14.59;49.61;102057.03;4976078;28;45354;-47
2022/09/20 00:41:01;;;;;;;;;2.33;1.00;;;;;14.57;49.47;102053.63;4975480;28;46171;-47
2022/09/20 00:43:44;;;;;;;;;3.00;2.00;;;;;14.53;49.38;102046.84;4975551;28;45318;-49
2022/09/20 00:46:35;;;;;;;;;4.67;2.67;;;;;14.50;49.53;102055.19;4975904;28;45672;-50
2022/09/20 00:49:25;;;;;;;;;7.00;2.00;;;;;14.45;49.45;102050.22;5015885;28;45448;-48
2022/09/20 00:51:55;;;;;;;;;3.67;2.00;;;;;14.46;49.37;102056.44;5015466;28;45997;-49
2022/09/20 00:54:24;;;;;;;;;2.33;2.00;;;;;14.33;49.72;102029.09;5015563;28;45456;-48
2022/09/20 00:56:50;;;;;;;;;2.00;2.00;;;;;14.43;49.89;102054.03;5015661;28;45366;-47
2022/09/20 00:59:20;;;;;;;;;4.67;1.67;;;;;14.41;49.88;102050.63;5015920;28;45306;-49
2022/09/20 01:01:51;;;;;;;;;2.33;2.00;;;;;14.39;49.69;102052.59;5014912;28;45436;-48
2022/09/20 01:04:21;;;;;;;;;2.00;1.00;;;;;14.32;50.23;102040.75;5015283;28;45385;-49
2022/09/20 01:06:50;;;;;;;;;2.33;2.00;;;;;14.33;50.26;102051.34;5015242;28;45470;-50
2022/09/20 01:09:15;;;;;;;;;1.00;1.00;;;;;14.30;50.31;102046.25;4999196;28;45409;-53
2022/09/20 01:11:41;;;;;;;;;3.00;2.00;;;;;14.27;50.64;102038.50;5015371;28;45932;-47
2022/09/20 01:14:07;;;;;;;;;1.00;1.00;;;;;14.31;50.52;102055.13;5015480;28;45341;-53
2022/09/20 01:16:36;;;;;;;;;2.33;2.00;;;;;14.29;50.38;102057.13;5015332;28;45306;-47
2022/09/20 01:19:12;;;;;;;;;1.00;1.00;;;;;14.28;50.59;102045.53;5015545;28;45337;-57
2022/09/20 01:21:37;;;;;;;;;3.67;2.33;;;;;14.25;50.89;102048.50;5015064;28;46484;-51
2022/09/20 01:24:05;;;;;;;;;3.00;1.67;;;;;14.26;50.32;102055.56;5014945;28;45577;-49
2022/09/20 01:27:08;;;;;;;;;2.00;2.00;;;;;14.24;50.21;102044.13;4986256;28;45483;-49
2022/09/20 01:29:36;;;;;;;;;3.00;3.00;;;;;14.23;50.78;102045.97;5015255;28;45366;-48
2022/09/20 01:32:09;;;;;;;;;3.33;3.00;;;;;14.21;50.69;102033.72;5014897;28;47226;-49
2022/09/20 01:34:39;;;;;;;;;2.00;2.00;;;;;14.22;50.91;102051.47;5015139;28;45376;-49
2022/09/20 01:37:04;;;;;;;;;3.00;2.00;;;;;14.21;50.67;102042.59;5015137;28;45554;-48
2022/09/20 01:39:46;;;;;;;;;2.00;2.00;;;;;14.17;50.54;102046.53;5015190;28;45946;-56
2022/09/20 01:42:13;;;;;;;;;3.00;3.00;;;;;14.18;50.78;102044.69;5014949;28;46127;-46
2022/09/20 01:44:54;;;;;;;;;1.67;1.67;;;;;14.18;50.46;102045.53;5014729;28;45408;-56
2022/09/20 01:47:42;;;;;;;;;1.67;1.67;;;;;14.15;50.44;102040.44;5014367;28;45547;-51
2022/09/20 01:50:29;;;;;;;;;3.00;1.33;;;;;14.13;50.46;102039.75;5015229;28;45404;-53
2022/09/20 01:53:10;;;;;;;;;1.33;1.33;;;;;14.12;50.92;102043.44;5014462;28;47084;-49
2022/09/20 01:55:49;;;;;;;;;5.33;2.00;;;;;14.09;51.04;102041.00;5014738;28;45443;-50
2022/09/20 01:58:14;;;;;;;;;4.67;3.00;;;;;14.09;51.20;102032.16;5014883;28;45476;-50
2022/09/20 02:01:11;;;;;;;;;4.00;2.00;;;;;14.09;51.18;102035.66;5015045;28;45521;-53
2022/09/20 02:03:58;;;;;;;;;2.00;2.00;;;;;14.07;51.08;102032.25;5014149;28;45431;-49
2022/09/20 02:06:57;;;;;;;;;2.67;1.33;;;;;14.06;51.26;102029.75;4997763;28;45407;-49
2022/09/20 02:10:07;;;;;;;;;2.00;2.00;;;;;14.06;51.13;102016.34;4974590;28;45429;-51
2022/09/20 02:12:55;;;;;;;;;1.67;1.67;;;;;14.03;50.79;102019.31;4976595;28;45323;-48
2022/09/20 02:15:58;;;;;;;;;3.00;3.00;;;;;14.00;51.19;102020.44;4976687;28;46989;-52
2022/09/20 02:18:44;;;;;;;;;2.00;2.00;;;;;13.98;51.60;102019.72;4977176;28;45403;-50
2022/09/20 02:21:16;;;;;;;;;2.00;2.00;;;;;13.96;51.96;102014.53;4977513;28;45259;-49
2022/09/20 02:24:02;;;;;;;;;2.00;2.00;;;;;13.94;52.32;102015.63;4977320;28;45350;-58
2022/09/20 02:26:40;;;;;;;;;4.67;2.00;;;;;13.92;52.05;102026.47;4977326;28;46292;-56
2022/09/20 02:29:26;;;;;;;;;2.00;2.00;;;;;13.92;52.09;102025.63;4977000;28;45218;-51
2022/09/20 02:32:13;;;;;;;;;3.00;2.00;;;;;13.91;51.93;102026.63;4977155;28;45326;-48
2022/09/20 02:34:51;;;;;;;;;3.67;2.33;;;;;13.90;52.08;102027.59;4977421;28;45332;-54
2022/09/20 02:37:50;;;;;;;;;7.00;2.00;;;;;13.88;51.75;102027.72;4976753;28;45345;-54
2022/09/20 02:40:37;;;;;;;;;2.00;2.00;;;;;13.88;52.35;102038.44;4976866;28;45240;-49
2022/09/20 02:43:32;;;;;;;;;3.67;2.00;;;;;13.87;51.88;102034.06;4977065;28;45265;-54
2022/09/20 02:46:21;;;;;;;;;3.33;1.00;;;;;13.87;51.83;102043.94;4977257;28;45362;-55
2022/09/20 02:49:01;;;;;;;;;3.67;2.00;;;;;13.85;52.06;102048.56;4976752;28;46442;-53
2022/09/20 02:51:59;;;;;;;;;3.33;2.33;;;;;13.83;51.44;102046.03;4976826;28;45383;-53
2022/09/20 02:54:49;;;;;;;;;4.00;2.00;;;;;13.81;51.90;102041.78;4976987;28;45265;-54
2022/09/20 02:57:32;;;;;;;;;6.67;2.67;;;;;13.78;52.36;102039.38;4977246;28;46097;-59
2022/09/20 03:00:22;;;;;;;;;6.00;2.67;;;;;13.76;52.06;102039.50;4976688;28;46363;-58
2022/09/20 03:03:06;;;;;;;;;5.33;3.00;;;;;13.72;52.25;102038.94;4976824;28;45217;-57
2022/09/20 03:06:01;;;;;;;;;2.00;2.00;;;;;13.71;52.05;102039.94;4976765;28;45334;-58
2022/09/20 03:08:37;;;;;;;;;4.00;3.00;;;;;13.69;52.59;102033.88;4976891;28;45533;-59
2022/09/20 03:11:31;;;;;;;;;1.00;1.00;;;;;13.65;52.14;102028.91;4976442;28;46173;-58
2022/09/20 03:14:10;;;;;;;;;3.00;1.33;;;;;13.66;52.10;102031.47;4976626;28;45592;-55
2022/09/20 03:16:41;;;;;;;;;1.00;1.00;;;;;13.66;52.63;102041.31;4976734;28;45418;-55
2022/09/20 03:19:10;;;;;;;;;5.00;2.00;;;;;13.65;52.83;102039.59;4977024;28;45454;-59
2022/09/20 03:21:55;;;;;;;;;2.67;2.33;;;;;13.61;52.98;102036.38;4976437;28;46415;-50
2022/09/20 03:24:45;;;;;;;;;6.33;3.67;;;;;13.62;52.81;102038.06;4976448;28;45487;-59
2022/09/20 03:27:30;;;;;;;;;3.33;2.00;;;;;13.60;53.13;102040.00;4975767;28;45425;-59
2022/09/20 03:30:18;;;;;;;;;3.67;2.00;;;;;13.60;53.22;102041.84;4976870;28;45473;-46
2022/09/20 03:32:52;;;;;;;;;2.00;1.00;;;;;13.60;52.98;102034.66;4976306;28;45284;-51
2022/09/20 03:35:57;;;;;;;;;2.33;1.00;;;;;13.57;53.00;102034.09;4976371;28;45593;-54
2022/09/20 03:38:33;;;;;;;;;1.33;1.00;;;;;13.57;53.15;102045.66;4976433;28;45469;-50
2022/09/20 03:41:10;;;;;;;;;4.00;0.67;;;;;13.57;53.02;102040.31;4976538;28;45433;-55
2022/09/20 03:44:08;;;;;;;;;2.00;2.00;;;;;13.15;52.81;101973.56;4976165;28;46064;-51
2022/09/20 03:46:33;;;;;;;;;1.00;1.00;;;;;13.56;53.56;102040.44;5016571;28;45460;-56
2022/09/20 03:49:27;;;;;;;;;2.00;2.00;;;;;13.55;53.71;102044.09;5016845;28;45558;-56
2022/09/20 03:51:59;;;;;;;;;3.33;2.00;;;;;13.53;53.54;102038.88;5017205;28;45410;-52
2022/09/20 03:54:33;;;;;;;;;2.33;2.00;;;;;13.50;53.57;102035.63;5015964;28;45382;-50
2022/09/20 03:57:14;;;;;;;;;3.67;3.67;;;;;13.52;53.31;102042.50;5016401;28;45567;-57
2022/09/20 04:00:04;;;;;;;;;2.00;2.00;;;;;13.51;53.43;102037.31;5016624;28;45311;-56
2022/09/20 04:02:44;;;;;;;;;3.00;3.00;;;;;13.50;53.67;102032.94;5016585;28;45363;-55
2022/09/20 04:05:31;;;;;;;;;3.00;2.67;;;;;13.48;53.83;102036.63;5016162;28;45394;-58
2022/09/20 04:08:16;;;;;;;;;3.00;2.00;;;;;13.45;53.65;102031.53;5016076;28;45270;-53
2022/09/20 04:11:14;;;;;;;;;3.00;1.00;;;;;13.45;53.86;102030.69;5016418;28;45317;-58
2022/09/20 04:14:26;;;;;;;;;3.00;2.00;;;;;13.44;53.90;102039.66;5016481;28;45515;-58
2022/09/20 04:17:02;;;;;;;;;2.33;2.33;;;;;13.41;53.92;102037.28;4937672;28;45359;-59
2022/09/20 04:19:42;;;;;;;;;2.33;1.67;;;;;13.42;53.62;102038.97;4937872;28;45485;-58
2022/09/20 04:22:08;;;;;;;;;2.00;2.00;;;;;13.41;54.88;102042.63;4965550;28;45336;-59
2022/09/20 04:24:40;;;;;;;;;2.00;1.00;;;;;13.40;54.25;102043.59;4996169;28;45977;-59
2022/09/20 04:27:28;;;;;;;;;4.00;3.00;;;;;13.39;54.48;102041.91;4996053;28;46349;-57
2022/09/20 04:30:04;;;;;;;;;2.00;2.00;;;;;13.36;54.77;102037.69;4996177;28;45373;-54
2022/09/20 04:33:05;;;;;;;;;3.00;3.00;;;;;13.36;54.79;102043.03;4996203;28;45502;-49
2022/09/20 04:38:29;;;;;;;;;1.00;1.00;;;;;13.36;54.65;102044.84;4995501;28;45840;-58
2022/09/20 04:41:15;;;;;;;;;2.00;2.00;;;;;13.34;54.93;102044.13;4995695;28;45298;-58
2022/09/20 04:43:51;;;;;;;;;4.00;2.67;;;;;13.36;54.95;102047.53;4996051;28;45305;-59
2022/09/20 04:46:41;;;;;;;;;8.33;3.00;;;;;13.32;54.86;102044.28;4996213;28;45489;-56
2022/09/20 04:49:32;;;;;;;;;1.67;1.67;;;;;13.33;54.86;102048.63;4975420;28;46308;-58
2022/09/20 04:52:25;;;;;;;;;3.00;2.00;;;;;13.33;54.39;102045.13;4975381;28;45313;-53
2022/09/20 04:55:09;;;;;;;;;3.33;2.00;;;;;13.31;54.83;102042.56;4975457;28;45205;-56
2022/09/20 04:58:11;;;;;;;;;4.00;2.00;;;;;13.31;55.10;102047.91;4975663;28;45371;-49
2022/09/20 05:01:15;;;;;;;;;2.00;2.00;;;;;13.30;55.04;102056.91;4975257;28;46306;-55
2022/09/20 05:04:14;;;;;;;;;1.67;1.67;;;;;13.29;54.97;102054.38;4975247;28;45435;-56
2022/09/20 05:07:22;;;;;;;;;8.33;6.00;;;;;13.27;54.72;102059.00;4975446;28;45374;-57
2022/09/20 05:10:20;;;;;;;;;4.33;3.00;;;;;13.26;55.11;102066.16;4975293;28;45408;-56
2022/09/20 05:13:13;;;;;;;;;3.67;3.00;;;;;13.27;55.06;102067.00;4975028;28;46320;-57
2022/09/20 05:16:03;;;;;;;;;8.00;2.67;;;;;13.25;54.84;102066.31;4975305;28;45284;-54
2022/09/20 05:18:43;;;;;;;;;2.33;2.33;;;;;13.23;54.81;102069.97;4975374;28;45615;-57
2022/09/20 05:21:35;;;;;;;;;2.33;2.33;;;;;13.24;55.35;102057.44;4975377;28;45348;-57
2022/09/20 05:24:01;;;;;;;;;1.67;1.67;;;;;13.23;55.37;102064.63;4974855;28;46096;-57
2022/09/20 05:27:02;;;;;;;;;3.00;3.00;;;;;13.24;54.94;102062.78;4975029;28;45331;-53
2022/09/20 05:29:43;;;;;;;;;3.00;3.00;;;;;13.22;55.23;102056.69;4975134;28;45307;-58
2022/09/20 05:32:31;;;;;;;;;3.00;3.00;;;;;13.20;55.82;102051.47;4975229;28;45198;-56
2022/09/20 05:34:59;;;;;;;;;4.00;2.00;;;;;13.21;55.44;102060.34;4974794;28;45389;-57
2022/09/20 05:38:02;;;;;;;;;6.67;4.00;;;;;13.20;55.57;102062.16;4974723;28;45505;-50
2022/09/20 05:40:46;;;;;;;;;5.33;2.67;;;;;13.21;55.90;102063.84;4972559;28;45559;-54
2022/09/20 05:43:26;;;;;;;;;5.33;2.00;;;;;13.25;55.90;102060.97;4975204;28;45312;-55
2022/09/20 05:46:28;;;;;;;;;8.33;3.00;;;;;13.32;55.81;102067.47;4974684;28;46270;-57
2022/09/20 05:49:09;;;;;;;;;3.00;3.00;;;;;13.38;55.23;102061.59;4973588;28;45321;-56
2022/09/20 05:51:53;;;;;;;;;3.67;2.00;;;;;13.48;55.54;102070.50;4974685;28;45326;-57
2022/09/20 05:54:32;;;;;;;;;2.00;2.00;;;;;13.56;55.16;102064.47;4974883;28;45336;-55
2022/09/20 05:57:35;;;;;;;;;4.00;2.00;;;;;13.66;55.01;102081.44;4974571;28;45410;-54
2022/09/20 06:00:13;;;;;;;;;2.33;2.00;;;;;13.76;54.90;102076.13;4965365;28;45346;-51
2022/09/20 06:03:06;;;;;;;;;5.67;3.67;;;;;13.85;54.62;102064.59;4974346;28;45421;-50
2022/09/20 06:05:32;;;;;;;;;2.33;2.33;;;;;13.92;54.82;102073.78;4974763;28;45471;-55
2022/09/20 06:08:07;;;;;;;;;0.00;0.00;;;;;14.00;54.23;102075.78;4974412;28;47100;-56
2022/09/20 06:10:51;;;;;;;;;2.00;2.00;;;;;14.08;54.21;102074.13;4975946;28;45305;-55
2022/09/20 06:13:23;;;;;;;;;3.00;3.00;;;;;14.14;54.15;102078.06;4974469;28;45411;-53
2022/09/20 06:16:03;;;;;;;;;12.00;4.00;;;;;14.19;53.95;102089.19;4974594;28;45936;-52
2022/09/20 06:18:48;;;;;;;;;3.00;3.00;;;;;14.24;53.65;102089.63;4974308;28;47185;-46
2022/09/20 06:21:28;;;;;;;;;7.00;3.00;;;;;14.29;53.86;102091.91;4974463;28;45383;-48
2022/09/20 06:24:00;;;;;;;;;2.00;2.00;;;;;14.29;53.69;102083.88;4974295;28;45236;-53
2022/09/20 06:26:32;;;;;;;;;7.00;4.00;;;;;14.32;53.64;102088.94;4974409;28;45370;-47
2022/09/20 06:29:04;;;;;;;;;6.33;3.00;;;;;14.41;53.33;102102.38;4973875;28;46396;-48
2022/09/20 06:31:29;;;;;;;;;5.67;5.67;;;;;14.44;53.69;102098.53;4974092;28;45293;-47
2022/09/20 06:34:10;;;;;;;;;8.67;7.33;;;;;14.47;53.00;102092.91;4974164;28;45742;-54
2022/09/20 06:42:29;;;;;;;;;11.00;8.00;;;;;14.54;52.80;102080.72;4973974;28;45331;-50
2022/09/20 06:44:55;;;;;;;;;9.00;7.67;;;;;14.52;53.00;102079.97;4974140;28;45517;-58
2022/09/20 06:47:22;;;;;;;;;7.33;7.33;;;;;14.60;52.83;102087.31;4974275;28;45346;-58
2022/09/20 06:49:49;;;;;;;;;17.33;10.33;;;;;14.62;53.02;102091.56;4973953;28;45371;-58
2022/09/20 06:52:17;;;;;;;;;13.33;10.33;;;;;14.63;52.82;102090.56;4973839;28;45362;-58
2022/09/20 06:54:44;;;;;;;;;8.67;5.33;;;;;14.65;52.84;102091.25;4973876;28;45371;-58
2022/09/20 06:57:15;;;;;;;;;13.67;8.00;;;;;14.72;53.01;102097.75;4974101;28;45367;-57
2022/09/20 06:59:40;;;;;;;;;8.67;8.67;;;;;14.78;53.04;102106.22;4973908;28;46109;-58
2022/09/20 07:02:07;;;;;;;;;6.33;6.33;;;;;14.80;52.82;102097.06;4976868;28;45363;-58
2022/09/20 07:04:33;;;;;;;;;9.00;8.00;;;;;14.83;52.86;102102.16;4976961;28;45469;-57
2022/09/20 07:07:00;;;;;;;;;6.67;4.33;;;;;14.86;52.72;102101.84;4977009;28;45212;-58
2022/09/20 07:09:25;;;;;;;;;11.00;5.33;;;;;14.90;52.90;102100.56;4976571;28;46340;-58
2022/09/20 07:11:50;;;;;;;;;6.67;4.00;;;;;14.93;52.69;102099.44;4976740;28;45320;-59
2022/09/20 07:14:17;;;;;;;;;3.67;3.67;;;;;14.96;52.43;102105.38;4977104;28;45424;-59
2022/09/20 07:16:43;;;;;;;;;3.67;3.67;;;;;15.01;52.40;102101.44;4978613;28;45337;-58
2022/09/20 07:19:08;;;;;;;;;3.00;3.00;;;;;15.04;52.14;102110.00;4976421;28;47156;-58
2022/09/20 07:21:33;;;;;;;;;9.33;7.00;;;;;15.08;52.09;102106.03;4976886;28;45421;-59
2022/09/20 07:24:00;;;;;;;;;4.33;3.00;;;;;15.12;52.11;102106.59;4976380;28;45272;-58
2022/09/20 07:26:29;;;;;;;;;4.33;3.67;;;;;15.14;51.95;102100.13;4978420;28;45539;-59
2022/09/20 07:28:56;;;;;;;;;5.67;4.00;;;;;15.21;51.92;102106.63;4976298;28;45229;-56
2022/09/20 07:31:23;;;;;;;;;4.67;3.33;;;;;15.27;51.72;102105.19;4975217;28;45444;-58
2022/09/20 07:33:48;;;;;;;;;9.67;5.67;;;;;15.32;51.46;102110.13;4976574;28;45368;-59
2022/09/20 07:36:15;;;;;;;;;3.00;3.00;;;;;15.37;51.51;102119.41;4976704;28;45328;-55
2022/09/20 07:38:41;;;;;;;;;5.00;3.33;;;;;15.41;51.38;102125.31;4976426;28;47163;-58
2022/09/20 07:41:09;;;;;;;;;4.67;4.67;;;;;15.43;51.42;102118.00;4975951;28;45354;-56
2022/09/20 07:43:35;;;;;;;;;4.67;4.67;;;;;15.46;51.20;102121.25;4976303;28;45499;-58
2022/09/20 07:46:01;;;;;;;;;6.00;5.00;;;;;15.47;51.15;102122.09;4976568;28;45366;-55
2022/09/20 07:48:30;;;;;;;;;7.67;4.67;;;;;15.52;51.17;102135.06;4976130;28;46202;-57
2022/09/20 07:51:01;;;;;;;;;5.00;5.00;;;;;15.55;51.15;102129.38;4974986;28;45426;-57
2022/09/20 07:53:26;;;;;;;;;8.00;8.00;;;;;15.58;50.85;102124.56;4976258;28;45445;-57
2022/09/20 07:56:04;;;;;;;;;8.67;5.33;;;;;15.62;50.90;102141.22;4976362;28;45318;-56
2022/09/20 07:58:32;;;;;;;;;9.33;9.00;;;;;15.66;50.62;102138.13;4975367;28;46281;-52
2022/09/20 08:01:00;;;;;;;;;9.00;6.33;;;;;15.69;50.73;102137.00;5037497;28;45369;-48
2022/09/20 08:03:26;;;;;;;;;8.00;6.00;;;;;15.71;50.56;102137.69;5079190;27;45516;-49
2022/09/20 08:05:58;;;;;;;;;12.00;9.00;;;;;15.76;50.88;102139.94;5079536;27;45384;-53
2022/09/20 08:08:24;;;;;;;;;5.00;5.00;;;;;15.79;50.52;102137.81;5078107;27;45385;-54
2022/09/20 08:10:49;;;;;;;;;6.33;6.00;;;;;15.79;50.31;102145.84;5078361;27;45519;-50
2022/09/20 08:13:15;;;;;;;;;7.00;7.00;;;;;15.82;50.18;102150.09;4995815;27;45670;-51
2022/09/20 08:15:41;;;;;;;;;7.67;5.00;;;;;15.84;50.17;102142.72;4975833;28;45579;-55
2022/09/20 08:18:10;;;;;;;;;9.00;5.00;;;;;15.84;49.88;102148.94;4975302;28;46161;-53
2022/09/20 08:20:37;;;;;;;;;7.00;4.00;;;;;15.87;49.87;102150.50;4975671;28;45341;-54
2022/09/20 08:23:04;;;;;;;;;6.00;5.33;;;;;15.89;49.89;102156.59;4975669;28;45446;-55
2022/09/20 08:25:30;;;;;;;;;5.33;4.33;;;;;15.79;49.93;102145.84;4975438;28;45308;-48
2022/09/20 08:27:55;;;;;;;;;6.67;4.00;;;;;15.91;49.83;102152.75;4975565;28;46984;-54
2022/09/20 08:30:22;;;;;;;;;5.00;5.00;;;;;15.95;49.95;102155.97;4975473;28;45430;-55
2022/09/20 08:32:48;;;;;;;;;4.00;4.00;;;;;16.00;49.92;102161.75;4975705;28;45470;-53
2022/09/20 08:35:14;;;;;;;;;4.67;4.67;;;;;16.03;49.86;102160.63;4975696;28;45392;-56
2022/09/20 08:37:42;;;;;;;;;8.67;4.67;;;;;16.07;49.77;102159.31;4975402;28;46278;-54
2022/09/20 08:40:11;;;;;;;;;10.67;6.33;;;;;16.07;49.70;102160.16;4976178;28;45450;-56
2022/09/20 08:42:38;;;;;;;;;5.33;5.00;;;;;16.12;49.78;102163.25;4976730;28;45418;-56
2022/09/20 08:45:13;;;;;;;;;3.67;2.67;;;;;16.16;49.55;102163.81;4976760;28;45318;-53
2022/09/20 08:47:48;;;;;;;;;4.00;4.00;;;;;16.06;49.62;102146.91;4976562;28;46241;-54
2022/09/20 08:50:14;;;;;;;;;3.00;1.33;;;;;16.23;49.45;102167.59;4989800;28;45355;-48
2022/09/20 08:52:45;;;;;;;;;6.00;5.00;;;;;16.28;49.52;102162.59;4975344;28;45347;-55
2022/09/20 08:55:23;;;;;;;;;6.67;5.67;;;;;16.36;49.32;102175.28;4975416;28;45358;-53
2022/09/20 08:57:55;;;;;;;;;7.00;6.00;;;;;16.46;49.18;102171.53;4975153;28;45438;-54
2022/09/20 09:00:24;;;;;;;;;9.00;5.00;;;;;16.56;49.29;102168.81;4975050;28;45329;-49
2022/09/20 09:02:54;;;;;;;;;5.33;5.33;;;;;16.63;48.92;102172.56;4975266;28;45295;-55
2022/09/20 09:05:33;;;;;;;;;7.00;6.00;;;;;16.78;48.56;102177.47;4975309;28;45345;-54
2022/09/20 09:08:03;;;;;;;;;5.67;5.00;;;;;16.87;48.38;102176.56;4974956;28;47324;-55
2022/09/20 09:10:53;;;;;;;;;6.00;5.00;;;;;16.93;48.43;102175.91;4973529;28;45438;-54
2022/09/20 09:13:31;;;;;;;;;6.33;4.33;;;;;16.98;47.97;102173.66;4974895;28;45433;-47
2022/09/20 09:16:00;;;;;;;;;5.00;4.67;;;;;16.96;47.85;102171.09;4975225;28;45225;-47
2022/09/20 09:18:38;;;;;;;;;9.00;4.00;;;;;16.92;48.35;102176.94;4975017;28;46534;-52
2022/09/20 09:21:06;;;;;;;;;5.00;3.67;;;;;16.83;48.29;102162.56;4974670;28;45472;-54
2022/09/20 09:23:48;;;;;;;;;5.00;4.00;;;;;16.88;48.07;102167.47;4973584;28;45236;-52
2022/09/20 09:26:20;;;;;;;;;6.00;4.00;;;;;16.88;48.05;102170.16;4975019;28;45418;-48
2022/09/20 09:28:47;;;;;;;;;5.00;5.00;;;;;16.88;48.27;102176.38;4974896;28;47065;-52
2022/09/20 09:31:24;;;;;;;;;6.67;4.00;;;;;16.89;48.30;102171.84;4974650;28;45322;-50
2022/09/20 09:33:50;;;;;;;;;4.00;4.00;;;;;16.92;48.38;102171.56;4974976;28;45471;-49
2022/09/20 09:36:21;;;;;;;;;8.00;4.33;;;;;16.99;48.14;102179.88;4975379;28;45174;-50
2022/09/20 09:38:47;;;;;;;;;5.00;3.00;;;;;17.03;47.89;102173.19;4974700;28;46326;-51
2022/09/20 09:41:28;;;;;;;;;5.33;3.00;;;;;17.02;47.76;102171.47;4974398;28;45441;-49
2022/09/20 09:44:05;;;;;;;;;6.33;3.33;;;;;17.14;47.69;102173.75;4974662;28;45326;-56
2022/09/20 09:46:33;;;;;;;;;9.00;5.00;;;;;17.25;47.62;102178.06;4974877;28;45376;-52
2022/09/20 09:49:19;;;;;;;;;7.33;4.00;;;;;17.33;47.66;102166.53;4974545;28;45392;-47
2022/09/20 09:52:15;;;;;;;;;3.33;3.33;;;;;17.37;47.25;102166.06;4974585;28;45389;-49
2022/09/20 09:54:50;;;;;;;;;4.33;4.00;;;;;17.48;47.06;102167.63;4974791;28;45390;-50
2022/09/20 09:57:30;;;;;;;;;3.00;3.00;;;;;17.53;47.22;102164.47;4974423;28;45261;-48
2022/09/20 10:00:17;;;;;;;;;4.00;4.00;;;;;17.54;46.67;102164.34;4974451;28;46404;-49
2022/09/20 10:03:04;;;;;;;;;3.00;2.00;;;;;17.62;46.41;102159.00;4974235;28;45562;-49
2022/09/20 10:06:00;;;;;;;;;5.67;4.33;;;;;17.70;46.40;102159.06;4974189;28;45373;-48
2022/09/20 10:08:53;;;;;;;;;1.67;1.67;;;;;17.74;46.15;102156.03;4974339;28;45458;-50
2022/09/20 10:11:36;;;;;;;;;4.67;2.67;;;;;17.78;45.35;102154.75;4974007;28;46038;-56
2022/09/20 10:14:33;;;;;;;;;2.00;2.00;;;;;17.98;45.44;102160.75;4974251;28;45386;-48
2022/09/20 10:17:30;;;;;;;;;3.75;2.00;;;;;18.26;44.82;102156.00;4974337;28;45337;-50
2022/09/20 10:20:27;;;;;;;;;4.67;3.00;;;;;18.47;44.32;102155.56;4974360;28;45549;-50
2022/09/20 10:23:08;;;;;;;;;3.00;2.75;;;;;18.70;43.80;102157.47;4974270;28;47042;-56
2022/09/20 10:25:42;;;;;;;;;5.00;4.25;;;;;18.88;43.15;102160.06;4974014;28;45524;-56
2022/09/20 10:28:49;;;;;;;;;2.75;2.75;;;;;19.08;43.35;102157.84;4972814;28;45432;-54
2022/09/20 10:31:24;;;;;;;;;3.00;3.00;;;;;19.49;42.54;102151.59;5014235;28;45495;-52
2022/09/20 10:34:17;;;;;;;;;5.00;3.00;;;;;19.96;41.28;102148.97;5013895;28;46181;-55
2022/09/20 10:36:54;;;;;;;;;6.00;3.75;;;;;20.35;40.77;102150.84;5017341;28;45424;-56
2022/09/20 10:39:39;;;;;;;;;4.50;2.25;;;;;20.61;39.49;102140.59;5017591;28;45393;-52
2022/09/20 10:45:22;;;;;;;;;5.00;2.00;;;;;21.24;38.57;102138.59;5017247;28;45292;-50
2022/09/20 10:47:57;;;;;;;;;3.60;2.20;;;;;21.51;38.18;102147.16;5017245;28;45388;-55
2022/09/20 10:50:58;;;;;;;;;4.00;3.50;;;;;21.98;38.10;102140.53;5017290;28;45651;-52
2022/09/20 10:53:47;;;;;;;;;6.00;4.75;;;;;22.30;36.92;102133.88;4919888;28;45527;-56
2022/09/20 10:56:27;;;;;;;;;4.75;4.00;;;;;23.13;36.60;102138.75;4919431;28;45411;-56
2022/09/20 10:59:21;;;;;;;;;2.60;2.00;;;;;23.40;36.08;102134.34;4919402;28;45459;-50
2022/09/20 11:01:46;;;;;;;;;2.20;2.20;;;;;23.46;34.93;102131.88;4919501;28;45297;-50
2022/09/20 11:04:43;;;;;;;;;6.25;5.00;;;;;23.41;35.18;102132.47;4919812;28;45448;-50
2022/09/20 11:07:08;;;;;;;;;5.60;4.00;;;;;23.73;34.31;102127.50;4881332;28;46131;-51
2022/09/20 11:09:39;;;;;;;;;6.00;5.00;;;;;23.86;34.28;102130.28;4919544;28;45424;-47
2022/09/20 11:12:23;;;;;;;;;7.00;4.00;;;;;23.74;33.84;102137.31;4919499;28;45260;-53
2022/09/20 11:15:13;;;;;;;;;6.75;4.00;;;;;23.66;34.18;102132.88;4919756;28;45443;-51
2022/09/20 11:17:48;;;;;;;;;6.00;4.00;;;;;23.71;34.63;102130.38;4919367;28;46312;-49
2022/09/20 11:20:31;;;;;;;;;5.00;4.00;;;;;23.59;34.46;102130.06;4919040;28;45527;-49
2022/09/20 11:23:16;;;;;;;;;2.40;2.40;;;;;23.47;34.79;102134.41;4919294;28;45427;-54
2022/09/20 11:25:50;;;;;;;;;2.00;2.00;;;;;23.35;34.40;102131.38;4919665;28;45418;-49
2022/09/20 11:28:26;;;;;;;;;1.40;1.40;;;;;23.14;35.63;102134.16;4919147;28;46971;-48
2022/09/20 11:31:07;;;;;;;;;3.80;2.00;;;;;23.15;34.39;102123.09;4917363;28;45426;-49
2022/09/20 11:34:04;;;;;;;;;3.00;1.80;;;;;23.32;34.18;102129.06;4915826;28;45517;-54
2022/09/20 11:36:56;;;;;;;;;4.20;3.00;;;;;23.68;34.48;102124.50;4916471;28;45338;-48
2022/09/20 11:39:37;;;;;;;;;2.00;2.00;;;;;24.18;32.67;102109.69;4915984;28;46488;-50
2022/09/20 11:42:05;;;;;;;;;3.00;1.80;;;;;24.94;31.02;102116.78;4915862;28;45448;-52
2022/09/20 11:44:31;;;;;;;;;5.20;2.80;;;;;25.24;30.25;102114.50;4957703;28;45357;-52
2022/09/20 11:47:05;;;;;;;;;1.00;1.00;;;;;25.16;30.31;102103.84;4975654;28;45357;-50
2022/09/20 11:50:08;;;;;;;;;2.00;2.00;;;;;25.11;30.73;102105.34;4976293;28;45452;-53
2022/09/20 11:52:56;;;;;;;;;2.00;1.40;;;;;25.11;30.58;102113.50;4976221;28;45417;-51
2022/09/20 11:55:24;;;;;;;;;1.80;1.80;;;;;25.04;30.45;102109.91;4976330;28;45246;-53
2022/09/20 11:58:02;;;;;;;;;2.40;1.60;;;;;24.81;31.23;102106.72;4975024;28;45259;-51
2022/09/20 12:00:32;;;;;;;;;2.00;0.80;;;;;24.50;30.98;102110.88;4975887;28;46341;-50
2022/09/20 12:02:58;;;;;;;;;3.20;0.80;;;;;24.02;31.95;102116.34;4976016;28;45418;-48
2022/09/20 12:05:26;;;;;;;;;1.80;1.20;;;;;23.69;32.17;102115.34;4976206;28;45359;-51
2022/09/20 12:07:54;;;;;;;;;2.00;2.00;;;;;23.37;32.42;102123.03;4976063;28;45389;-48
2022/09/20 12:10:34;;;;;;;;;1.80;1.40;;;;;23.02;32.97;102120.25;4990974;28;46137;-50
2022/09/20 12:13:18;;;;;;;;;3.60;3.00;;;;;22.71;33.26;102122.44;4975693;28;45315;-50
2022/09/20 12:15:44;;;;;;;;;3.00;1.40;;;;;22.32;34.57;102108.25;4975950;28;45467;-50
2022/09/20 12:18:31;;;;;;;;;2.00;2.00;;;;;21.92;34.60;102110.47;4976204;28;45255;-51
2022/09/20 12:20:57;;;;;;;;;2.00;2.00;;;;;21.69;35.14;102109.72;4975579;28;46085;-50
2022/09/20 12:23:37;;;;;;;;;2.00;1.00;;;;;21.60;35.08;102113.53;4975933;28;45359;-49
2022/09/20 12:26:03;;;;;;;;;2.00;2.00;;;;;21.63;35.33;102119.44;4975703;28;45327;-51
2022/09/20 12:28:38;;;;;;;;;3.50;2.00;;;;;21.54;35.90;102101.59;4975993;28;45429;-49